Time;durP1;ratioP1;P1;durP2;ratioP2;P2;SDS_P1;SDS_P2;PMS_P1;PMS_P2;Temp;Humidity;BMP_temperature;BMP_pressure;BME280_temperature;BME280_humidity;BME280_pressure;Samples;Min_cycle;Max_cycle;Signal;HPM_P1;HPM_P2
2021/12/23 00:00:27;;;;;;;57.63;24.63;;;;;;;-2.36;77.20;96541.50;10288073;28;96935;-64
2021/12/23 00:05:31;;;;;;;54.80;24.13;;;;;;;-2.30;76.95;96538.72;10293187;28;97776;-64
2021/12/23 00:10:33;;;;;;;55.75;25.23;;;;;;;-2.27;76.97;96541.13;10285959;28;98570;-64
2021/12/23 00:15:50;;;;;;;51.53;24.42;;;;;;;-2.29;76.20;96545.47;10282012;28;97657;-64
2021/12/23 00:26:13;;;;;;;55.53;26.05;;;;;;;-2.29;75.85;96532.69;10286164;28;98961;-64
2021/12/23 00:31:17;;;;;;;58.53;26.08;;;;;;;-2.31;76.63;96528.53;10281728;28;98637;-64
2021/12/23 00:36:20;;;;;;;62.88;27.30;;;;;;;-2.33;76.36;96531.16;10287758;28;96830;-64
2021/12/23 00:41:28;;;;;;;52.78;25.17;;;;;;;-2.38;77.41;96543.28;10285146;28;97177;-64
2021/12/23 00:46:32;;;;;;;56.22;25.73;;;;;;;-2.34;75.97;96549.94;10281863;28;96925;-64
2021/12/23 00:51:36;;;;;;;55.55;26.95;;;;;;;-2.40;76.52;96545.09;10284587;28;96897;-64
2021/12/23 00:56:40;;;;;;;59.85;26.70;;;;;;;-2.44;76.27;96528.19;10279887;28;97028;-64
2021/12/23 01:01:46;;;;;;;58.70;26.55;;;;;;;-2.49;76.75;96542.88;10282277;28;98788;-64
2021/12/23 01:06:49;;;;;;;59.88;27.70;;;;;;;-2.55;76.74;96538.00;10288040;28;97026;-64
2021/12/23 01:11:54;;;;;;;62.63;27.42;;;;;;;-2.62;77.75;96545.91;10297729;28;97715;-64
2021/12/23 01:22:23;;;;;;;55.58;24.52;;;;;;;-2.55;77.37;96548.25;10274108;28;96912;-64
2021/12/23 01:27:26;;;;;;;61.17;26.98;;;;;;;-2.60;77.22;96543.31;10295931;28;96866;-64
2021/12/23 01:32:30;;;;;;;60.05;27.25;;;;;;;-2.71;77.69;96533.50;10286831;28;98497;-64
2021/12/23 01:37:33;;;;;;;59.17;24.77;;;;;;;-2.83;78.27;96541.63;10290234;28;97673;-64
2021/12/23 01:42:36;;;;;;;58.67;26.70;;;;;;;-2.89;77.74;96537.59;10285916;28;97793;-64
2021/12/23 01:47:41;;;;;;;63.13;27.75;;;;;;;-2.91;78.15;96528.31;10289251;28;98589;-64
2021/12/23 01:52:44;;;;;;;63.27;26.23;;;;;;;-3.02;78.58;96532.09;10295125;28;98370;-64
2021/12/23 01:57:49;;;;;;;60.45;27.35;;;;;;;-3.03;77.67;96535.56;10292664;28;98613;-64
2021/12/23 02:02:55;;;;;;;52.72;24.63;;;;;;;-2.99;78.48;96524.31;10300472;28;98411;-64
2021/12/23 02:07:58;;;;;;;57.50;26.02;;;;;;;-3.07;77.64;96521.22;10293676;28;100207;-64
2021/12/23 02:13:01;;;;;;;61.53;25.27;;;;;;;-3.02;78.79;96515.94;10285083;28;96812;-64
2021/12/23 02:18:06;;;;;;;60.78;27.48;;;;;;;-3.07;77.66;96513.56;10288165;28;97344;-64
2021/12/23 02:23:10;;;;;;;58.83;25.88;;;;;;;-3.08;78.21;96496.56;10288671;28;98957;-64
2021/12/23 02:28:16;;;;;;;60.57;26.90;;;;;;;-3.16;78.39;96496.03;10283363;28;96911;-64
2021/12/23 02:33:20;;;;;;;51.38;24.10;;;;;;;-3.21;78.70;96480.84;10282780;28;96921;-64
2021/12/23 02:38:25;;;;;;;54.47;24.77;;;;;;;-3.18;78.92;96474.81;10284306;28;96924;-63
2021/12/23 02:43:29;;;;;;;59.42;26.45;;;;;;;-3.19;78.50;96463.72;10287393;28;98307;-64
2021/12/23 02:48:34;;;;;;;57.25;25.20;;;;;;;-3.24;78.89;96465.63;10285905;28;96975;-63
2021/12/23 02:53:40;;;;;;;56.00;23.75;;;;;;;-3.25;78.22;96452.91;10286897;28;98713;-63
2021/12/23 02:58:45;;;;;;;49.13;22.83;;;;;;;-3.26;78.21;96458.94;10290280;28;98678;-64
2021/12/23 03:03:48;;;;;;;60.90;27.25;;;;;;;-3.28;78.18;96442.81;10290440;28;97043;-64
2021/12/23 03:08:56;;;;;;;57.85;25.10;;;;;;;-3.26;77.64;96441.03;10306033;28;96937;-64
2021/12/23 03:13:59;;;;;;;61.10;27.80;;;;;;;-3.28;77.83;96447.94;10291395;28;96811;-64
2021/12/23 03:19:02;;;;;;;58.72;25.67;;;;;;;-3.29;78.62;96447.09;10288395;28;97717;-63
2021/12/23 03:24:07;;;;;;;64.95;27.73;;;;;;;-3.31;78.22;96432.72;10286970;28;97331;-63
2021/12/23 03:29:11;;;;;;;59.43;26.80;;;;;;;-3.37;78.78;96429.50;10294628;28;96886;-64
2021/12/23 03:34:14;;;;;;;57.85;26.50;;;;;;;-3.42;78.44;96426.28;10286806;28;98738;-64
2021/12/23 03:39:19;;;;;;;58.53;25.55;;;;;;;-3.44;78.20;96417.84;10287109;28;97902;-63
2021/12/23 03:44:22;;;;;;;;;;;;;;;-3.48;78.21;96421.41;10285253;28;96797;-63
2021/12/23 03:49:24;;;;;;;59.67;25.92;;;;;;;-3.51;78.11;96418.97;10283942;28;96854;-64
2021/12/23 03:54:29;;;;;;;65.90;28.40;;;;;;;-3.63;79.34;96414.34;10282357;28;98494;-64
2021/12/23 03:59:32;;;;;;;64.28;28.42;;;;;;;-3.65;78.87;96416.09;10289928;28;98519;-63
2021/12/23 04:04:35;;;;;;;59.38;25.85;;;;;;;-3.68;79.22;96417.06;10288953;28;100103;-64
2021/12/23 04:09:39;;;;;;;63.60;27.10;;;;;;;-3.68;78.30;96411.94;10286132;28;97373;-64
2021/12/23 04:14:42;;;;;;;64.22;28.02;;;;;;;-3.79;79.83;96422.56;10291202;28;96859;-63
2021/12/23 04:19:46;;;;;;;64.50;27.83;;;;;;;-3.75;79.66;96413.06;10286966;28;98430;-64
2021/12/23 04:24:50;;;;;;;69.00;30.13;;;;;;;-3.70;79.16;96410.31;10283970;28;97818;-63
2021/12/23 04:29:53;;;;;;;62.95;27.73;;;;;;;-3.71;79.55;96403.56;10294684;28;96769;-64
2021/12/23 04:34:56;;;;;;;68.32;28.92;;;;;;;-3.71;79.49;96403.56;10288932;28;96902;-63
2021/12/23 04:40:01;;;;;;;68.57;29.17;;;;;;;-3.65;78.99;96398.22;10284971;28;97445;-64
2021/12/23 04:45:05;;;;;;;69.13;28.17;;;;;;;-3.59;78.98;96396.28;10283822;28;100506;-64
2021/12/23 04:50:10;;;;;;;60.65;25.92;;;;;;;-3.56;79.77;96395.34;10284807;28;98371;-64
2021/12/23 04:55:16;;;;;;;57.72;25.40;;;;;;;-3.52;79.42;96404.53;10287893;28;98237;-64
2021/12/23 05:00:22;;;;;;;57.55;26.65;;;;;;;-3.52;79.33;96398.59;10290124;28;98647;-63
2021/12/23 05:05:24;;;;;;;;;;;;;;;-3.57;79.35;96394.47;10286508;28;97144;-63
2021/12/23 05:10:28;;;;;;;62.45;27.02;;;;;;;-3.68;78.89;96394.06;10290744;28;96840;-63
2021/12/23 05:15:34;;;;;;;65.35;25.80;;;;;;;-3.86;79.18;96389.63;10281161;28;98943;-64
2021/12/23 05:20:37;;;;;;;63.38;28.08;;;;;;;-3.89;79.64;96385.50;10284514;28;96851;-64
2021/12/23 05:25:42;;;;;;;58.10;25.08;;;;;;;-3.86;79.40;96395.59;10287629;28;98019;-64
2021/12/23 05:30:44;;;;;;;59.92;26.65;;;;;;;-3.83;79.82;96392.09;10287152;28;97005;-63
2021/12/23 05:35:47;;;;;;;58.60;26.92;;;;;;;-3.84;79.76;96392.97;10282865;28;96930;-64
2021/12/23 05:40:52;;;;;;;61.83;26.52;;;;;;;-3.83;79.65;96384.41;10284667;28;96906;-64
2021/12/23 05:45:55;;;;;;;67.03;29.03;;;;;;;-3.82;79.84;96391.22;10278475;28;97868;-64
2021/12/23 05:50:58;;;;;;;62.80;27.15;;;;;;;-3.89;79.78;96385.50;10280604;28;97039;-64
2021/12/23 05:56:02;;;;;;;60.92;25.73;;;;;;;-3.93;79.37;96394.13;10284635;28;97130;-63
2021/12/23 06:01:05;;;;;;;62.55;26.42;;;;;;;-3.96;80.31;96394.25;10288002;28;97352;-66
2021/12/23 06:06:08;;;;;;;65.47;25.58;;;;;;;-3.95;79.62;96404.41;10293108;28;96923;-64
2021/12/23 06:11:15;;;;;;;61.10;26.58;;;;;;;-3.92;79.48;96406.00;10290880;28;97200;-64
2021/12/23 06:16:18;;;;;;;59.13;25.05;;;;;;;-3.92;79.56;96404.28;10287790;28;96862;-64
2021/12/23 06:21:22;;;;;;;60.60;26.45;;;;;;;-3.97;80.08;96397.69;10301074;28;96800;-64
2021/12/23 06:26:26;;;;;;;54.47;25.52;;;;;;;-4.02;80.37;96394.47;10292713;28;97119;-64
2021/12/23 06:31:29;;;;;;;57.08;24.85;;;;;;;-4.06;80.11;96400.59;10294979;28;97613;-64
2021/12/23 06:36:32;;;;;;;64.18;28.55;;;;;;;-4.16;80.43;96402.63;10292655;28;98325;-64
2021/12/23 06:41:36;;;;;;;63.88;27.23;;;;;;;-4.20;80.53;96403.63;10288151;28;97259;-64
2021/12/23 06:46:39;;;;;;;65.28;26.67;;;;;;;-4.19;79.76;96406.13;10295981;28;97678;-64
2021/12/23 06:51:42;;;;;;;57.88;26.23;;;;;;;-4.21;80.18;96410.41;10292206;28;96842;-64
2021/12/23 06:56:47;;;;;;;60.08;24.98;;;;;;;-4.25;80.02;96411.41;10289146;28;96998;-64
2021/12/23 07:01:50;;;;;;;57.72;26.35;;;;;;;-4.25;80.38;96405.50;10284132;28;96852;-65
2021/12/23 07:07:07;;;;;;;56.40;24.90;;;;;;;-4.28;79.36;96413.25;10287696;28;98654;-64
2021/12/23 07:12:13;;;;;;;60.17;24.42;;;;;;;-4.34;80.13;96414.31;10285451;28;97670;-64
2021/12/23 07:17:17;;;;;;;57.38;25.38;;;;;;;-4.42;80.28;96421.38;10295053;28;96746;-64
2021/12/23 07:22:20;;;;;;;66.72;27.77;;;;;;;-4.49;80.32;96416.47;10286489;28;97067;-64
2021/12/23 07:27:25;;;;;;;71.63;29.75;;;;;;;-4.46;80.01;96415.53;10283034;28;96876;-64
2021/12/23 07:32:28;;;;;;;59.50;25.90;;;;;;;-4.43;80.10;96419.69;10284462;28;97016;-64
2021/12/23 07:37:31;;;;;;;65.97;27.70;;;;;;;-4.38;79.80;96430.56;10289737;28;97033;-64
2021/12/23 07:42:38;;;;;;;62.08;26.42;;;;;;;-4.45;80.24;96427.44;10290300;28;96765;-64
2021/12/23 07:47:41;;;;;;;68.53;29.25;;;;;;;-4.53;80.33;96429.38;10287604;28;98885;-64
2021/12/23 07:52:43;;;;;;;63.17;28.20;;;;;;;-4.47;80.58;96429.16;10292383;28;97034;-64
2021/12/23 07:57:48;;;;;;;73.15;29.17;;;;;;;-4.44;81.15;96435.91;10290550;28;97010;-64
2021/12/23 08:02:51;;;;;;;63.93;26.80;;;;;;;-4.36;80.83;96431.38;10287704;28;100430;-64
2021/12/23 08:07:55;;;;;;;70.22;30.02;;;;;;;-4.27;80.21;96436.16;10295818;28;96777;-64
2021/12/23 08:13:00;;;;;;;73.05;29.63;;;;;;;-4.20;80.17;96429.13;10290868;28;97415;-64
2021/12/23 08:18:05;;;;;;;66.70;28.58;;;;;;;-4.18;80.51;96433.28;10286023;28;98904;-64
2021/12/23 08:23:08;;;;;;;80.97;33.63;;;;;;;-4.09;80.41;96434.66;10289559;28;96902;-64
2021/12/23 08:28:13;;;;;;;82.40;36.67;;;;;;;-4.04;80.35;96437.06;10288556;28;96985;-64
2021/12/23 08:33:16;;;;;;;82.53;35.25;;;;;;;-3.97;80.04;96430.88;10284559;28;96811;-64
2021/12/23 08:38:19;;;;;;;82.50;35.40;;;;;;;-3.92;80.03;96431.53;10294200;28;98439;-64
2021/12/23 08:43:24;;;;;;;81.20;35.83;;;;;;;-3.83;80.26;96425.25;10292701;28;96831;-64
2021/12/23 08:48:26;;;;;;;79.65;34.42;;;;;;;-3.75;80.19;96421.53;10282967;28;98500;-64
2021/12/23 08:53:30;;;;;;;65.88;31.00;;;;;;;-3.71;80.52;96429.91;10286259;28;99083;-64
2021/12/23 08:58:34;;;;;;;65.68;29.98;;;;;;;-3.64;80.32;96420.31;10282418;28;97204;-64
2021/12/23 09:03:37;;;;;;;68.63;31.50;;;;;;;-3.57;80.18;96425.13;10287040;28;97619;-64
2021/12/23 09:08:40;;;;;;;67.10;28.50;;;;;;;-3.45;80.11;96430.69;10285007;28;97010;-64
2021/12/23 09:13:45;;;;;;;67.68;28.75;;;;;;;-3.39;80.32;96423.63;10286789;28;96787;-64
2021/12/23 09:18:48;;;;;;;66.07;29.88;;;;;;;-3.31;80.81;96415.66;10283739;28;98990;-64
2021/12/23 09:23:50;;;;;;;64.78;30.38;;;;;;;-3.12;80.08;96409.84;10282197;28;100267;-64
2021/12/23 09:29:01;;;;;;;69.00;31.50;;;;;;;-2.83;80.87;96409.50;10285892;28;96988;-64
2021/12/23 09:34:04;;;;;;;64.72;31.63;;;;;;;-2.38;80.31;96405.13;10284166;28;96964;-64
2021/12/23 09:39:09;;;;;;;72.03;32.05;;;;;;;-1.94;80.35;96404.94;10290436;28;96810;-64
2021/12/23 09:44:15;;;;;;;64.45;29.58;;;;;;;-1.58;80.46;96405.94;10297442;28;97029;-64
2021/12/23 09:49:18;;;;;;;65.70;30.85;;;;;;;-1.23;80.13;96412.00;10294646;28;97430;-65
2021/12/23 09:54:22;;;;;;;55.25;27.98;;;;;;;-0.89;80.43;96413.00;10297408;28;96917;-65
2021/12/23 09:59:28;;;;;;;57.13;28.25;;;;;;;-0.62;80.03;96403.09;10286737;28;97078;-65
2021/12/23 10:04:31;;;;;;;55.15;26.65;;;;;;;-0.34;79.40;96406.88;10294836;28;96910;-65
2021/12/23 10:09:45;;;;;;;55.08;26.42;;;;;;;-0.19;79.41;96395.00;10294807;28;97046;-65
2021/12/23 10:31:07;;;;;;;43.95;22.13;;;;;;;0.54;78.45;96390.31;10289922;28;96865;-64
2021/12/23 10:41:31;;;;;;;46.92;23.25;;;;;;;0.88;77.79;96377.38;10279210;28;98824;-64
2021/12/23 10:46:38;;;;;;;40.72;20.98;;;;;;;0.97;77.49;96366.59;10288564;28;97827;-64
2021/12/23 10:52:07;;;;;;;49.60;25.05;;;;;;;1.17;77.83;96353.44;10299542;28;96910;-64
2021/12/23 11:03:04;;;;;;;;;;;;;;;1.47;76.54;96349.16;10277654;28;96983;-64
2021/12/23 11:08:20;;;;;;;43.05;22.73;;;;;;;1.49;76.56;96337.88;10287131;28;97186;-64
2021/12/23 11:40:52;;;;;;;49.38;26.13;;;;;;;2.15;75.74;96284.16;10288993;28;96881;-64
2021/12/23 11:45:55;;;;;;;45.03;24.63;;;;;;;2.13;75.17;96283.41;10291673;28;99328;-64
2021/12/23 11:51:07;;;;;;;45.28;22.90;;;;;;;2.15;75.25;96272.97;10280593;28;98394;-64
2021/12/23 11:56:13;;;;;;;43.13;23.23;;;;;;;2.18;74.90;96263.34;10302382;28;96988;-64
2021/12/23 12:01:19;;;;;;;43.72;23.05;;;;;;;2.03;74.70;96259.94;10289694;28;97556;-64
2021/12/23 12:06:27;;;;;;;42.20;22.83;;;;;;;1.89;74.33;96242.75;10287620;28;99633;-66
2021/12/23 12:11:30;;;;;;;40.50;21.70;;;;;;;1.83;74.50;96232.00;10288547;28;101523;-65
2021/12/23 12:16:35;;;;;;;39.60;20.92;;;;;;;1.91;74.35;96230.59;10286147;28;97104;-63
2021/12/23 12:21:43;;;;;;;35.22;20.10;;;;;;;2.03;74.21;96218.72;10285424;28;97066;-63
2021/12/23 12:26:58;;;;;;;38.58;21.60;;;;;;;2.17;73.87;96204.16;10289568;28;96890;-63
2021/12/23 12:32:01;;;;;;;29.85;17.02;;;;;;;2.24;73.25;96203.66;10284097;28;96893;-62
2021/12/23 12:37:07;;;;;;;25.00;14.98;;;;;;;2.39;73.85;96206.16;10284181;28;97098;-63
2021/12/23 12:42:29;;;;;;;27.55;15.00;;;;;;;2.59;72.37;96192.81;10285283;28;96923;-63
2021/12/23 12:47:37;;;;;;;22.80;13.50;;;;;;;2.64;72.67;96195.13;10284922;28;96953;-63
2021/12/23 13:00:06;;;;;;;;;;;;;;;;;;;;;
2021/12/23 13:05:54;;;;;;;13.35;7.78;;;;;;;3.16;71.15;96189.06;10095514;28;97333;-64
2021/12/23 13:23:32;;;;;;;8.60;5.57;;;;;;;3.63;71.88;96160.94;10046815;29;97051;-64
2021/12/23 13:28:39;;;;;;;9.40;5.55;;;;;;;4.08;68.83;96150.84;10051610;28;98128;-64
2021/12/23 13:33:48;;;;;;;6.80;4.35;;;;;;;4.56;67.27;96150.00;10085614;28;97020;-63
2021/12/23 14:16:47;;;;;;;8.73;4.53;;;;;;;5.22;66.76;96090.69;9587081;30;99694;-63
2021/12/23 14:27:12;;;;;;;8.80;4.32;;;;;;;5.32;64.95;96081.25;9728833;29;97089;-63
2021/12/23 14:32:16;;;;;;;7.40;4.93;;;;;;;5.43;66.17;96069.25;9971340;28;97192;-63
2021/12/23 14:37:18;;;;;;;8.60;4.85;;;;;;;5.51;64.95;96059.91;10127937;28;99272;-63
2021/12/23 14:42:24;;;;;;;6.30;4.22;;;;;;;5.60;64.62;96063.56;10204473;28;96858;-63
2021/12/23 14:47:29;;;;;;;8.48;4.80;;;;;;;5.64;65.49;96052.00;10198514;28;98296;-63
2021/12/23 14:52:40;;;;;;;9.95;5.45;;;;;;;5.77;65.51;96046.63;10212136;28;96886;-63
2021/12/23 14:57:50;;;;;;;9.20;5.07;;;;;;;5.90;64.55;96056.88;10205500;28;97055;-64
2021/12/23 15:03:01;;;;;;;10.32;5.88;;;;;;;5.92;63.70;96054.97;10240510;28;97019;-63
2021/12/23 15:08:06;;;;;;;8.73;5.22;;;;;;;5.88;63.28;96051.78;10290682;28;96808;-65
2021/12/23 15:13:25;;;;;;;7.17;4.30;;;;;;;5.79;63.69;96051.69;10284294;28;97058;-63
2021/12/23 15:37:06;;;;;;;7.63;4.85;;;;;;;5.52;63.34;96055.56;9813873;29;97144;-65
2021/12/23 16:14:24;;;;;;;7.57;4.75;;;;;;;4.85;64.07;96072.75;9964672;29;98895;-65
2021/12/23 16:19:27;;;;;;;7.85;5.15;;;;;;;4.73;64.89;96069.38;9999031;29;98077;-65
2021/12/23 16:24:30;;;;;;;7.20;5.03;;;;;;;4.63;64.60;96078.75;10211058;28;104904;-65
2021/12/23 16:30:06;;;;;;;8.18;5.70;;;;;;;4.52;64.81;96070.97;10279123;28;97016;-65
2021/12/23 16:35:33;;;;;;;8.27;5.80;;;;;;;4.44;64.99;96071.53;10280647;28;96863;-65
2021/12/23 16:40:39;;;;;;;10.15;6.80;;;;;;;4.38;65.26;96071.97;10282813;28;96836;-65
2021/12/23 16:45:44;;;;;;;9.05;6.10;;;;;;;4.33;65.32;96081.84;10285937;28;97407;-65
2021/12/23 16:50:48;;;;;;;8.27;4.45;;;;;;;4.22;65.84;96074.06;10284369;28;96846;-65
2021/12/23 17:01:28;;;;;;;13.98;10.23;;;;;;;4.18;65.95;96076.06;10196125;28;98183;-65
2021/12/23 17:06:32;;;;;;;13.30;8.10;;;;;;;4.19;65.82;96070.78;10196204;28;99255;-65
2021/12/23 17:11:35;;;;;;;8.02;5.90;;;;;;;4.09;66.40;96085.31;10202648;28;97245;-65
2021/12/23 17:16:40;;;;;;;8.75;6.57;;;;;;;4.03;66.39;96075.41;10193479;28;99076;-65
2021/12/23 17:21:52;;;;;;;8.90;5.90;;;;;;;4.01;66.91;96083.25;10193083;28;96989;-65
2021/12/23 17:26:56;;;;;;;8.88;5.78;;;;;;;3.98;67.23;96074.91;10195753;28;97802;-65
2021/12/23 17:32:02;;;;;;;7.43;4.13;;;;;;;3.91;67.79;96082.28;10262526;28;96816;-65
2021/12/23 17:37:05;;;;;;;6.60;3.80;;;;;;;3.90;67.24;96072.03;10287905;28;96802;-65
2021/12/23 17:42:08;;;;;;;6.28;4.20;;;;;;;3.90;67.65;96072.03;10285394;28;96910;-65
2021/12/23 17:47:13;;;;;;;4.60;3.00;;;;;;;3.80;68.47;96064.97;10287895;28;97117;-65
2021/12/23 17:52:16;;;;;;;8.85;6.40;;;;;;;3.67;68.36;96056.44;10294972;28;97751;-65
2021/12/23 17:57:19;;;;;;;10.88;7.63;;;;;;;3.61;69.26;96057.69;10292540;28;98180;-65
2021/12/23 18:02:23;;;;;;;13.07;8.20;;;;;;;3.48;69.93;96056.09;10291269;28;97660;-65
2021/12/23 18:07:26;;;;;;;10.17;6.77;;;;;;;3.40;69.49;96061.81;10300317;28;97692;-65
2021/12/23 18:12:29;;;;;;;7.50;4.40;;;;;;;3.28;70.05;96058.34;10299033;28;96830;-65
2021/12/23 18:17:34;;;;;;;10.82;7.88;;;;;;;3.21;69.93;96054.53;10296257;28;100220;-65
2021/12/23 18:22:37;;;;;;;11.35;8.43;;;;;;;3.09;69.99;96053.63;10300479;28;96933;-65
2021/12/23 18:27:40;;;;;;;8.13;5.75;;;;;;;2.93;70.53;96063.34;10294670;28;96961;-65
2021/12/23 18:32:47;;;;;;;7.43;5.15;;;;;;;2.80;70.48;96069.34;10289040;28;97523;-65
2021/12/23 18:37:55;;;;;;;13.15;8.55;;;;;;;2.66;71.22;96062.53;10295174;28;98143;-65
2021/12/23 18:43:00;;;;;;;8.45;4.97;;;;;;;2.56;71.36;96066.66;10278976;28;97763;-65
2021/12/23 18:48:04;;;;;;;7.47;5.03;;;;;;;2.39;71.58;96067.81;10303851;28;96747;-65
2021/12/23 18:53:08;;;;;;;;;;;;;;;2.26;71.89;96080.66;10296833;28;99115;-65
2021/12/23 18:58:10;;;;;;;31.10;19.17;;;;;;;2.18;71.87;96071.78;10289571;28;98784;-65
2021/12/23 19:03:24;;;;;;;43.90;24.73;;;;;;;2.09;72.51;96074.03;10284572;28;96922;-65
2021/12/23 19:08:27;;;;;;;51.90;29.83;;;;;;;2.03;72.00;96086.50;10288541;28;96819;-65
2021/12/23 19:13:30;;;;;;;15.98;10.50;;;;;;;1.88;72.86;96091.69;10288208;28;102159;-65
2021/12/23 19:18:41;;;;;;;38.22;18.58;;;;;;;1.82;73.63;96092.09;10286502;28;96894;-66
2021/12/23 19:23:45;;;;;;;19.25;10.52;;;;;;;1.79;73.66;96092.28;10286516;28;96782;-65
2021/12/23 19:28:48;;;;;;;13.05;8.10;;;;;;;1.82;73.92;96086.94;10290934;28;96830;-65
2021/12/23 19:33:52;;;;;;;10.90;7.25;;;;;;;1.82;73.68;96092.09;10284497;28;98230;-65
2021/12/23 19:38:55;;;;;;;14.27;7.97;;;;;;;1.89;73.46;96072.75;10284596;28;96901;-65
2021/12/23 19:43:58;;;;;;;17.05;9.07;;;;;;;1.91;73.60;96078.63;10291623;28;97167;-65
2021/12/23 19:49:02;;;;;;;15.57;10.07;;;;;;;1.89;73.56;96080.47;10286447;28;96894;-65
2021/12/23 19:54:06;;;;;;;12.57;6.53;;;;;;;1.69;74.13;96086.88;10288280;28;96951;-65
2021/12/23 19:59:44;;;;;;;14.25;8.52;;;;;;;1.62;74.09;96074.50;10273948;28;99538;-65
2021/12/23 20:05:58;;;;;;;22.23;12.00;;;;;;;1.60;74.08;96074.59;10283310;28;97227;-65
2021/12/23 20:11:02;;;;;;;22.13;13.80;;;;;;;1.58;74.12;96078.19;10159133;28;97832;-65
2021/12/23 20:16:06;;;;;;;18.42;11.05;;;;;;;1.48;74.42;96076.19;10158274;28;98774;-65
2021/12/23 20:21:09;;;;;;;18.23;10.77;;;;;;;1.10;75.16;96069.09;10161884;28;96891;-65
2021/12/23 20:26:14;;;;;;;14.98;10.05;;;;;;;1.11;74.78;96068.19;10157522;28;98795;-65
2021/12/23 20:31:17;;;;;;;9.00;6.95;;;;;;;1.11;75.24;96068.19;10159556;28;96903;-65
2021/12/23 20:36:20;;;;;;;11.73;6.68;;;;;;;1.07;75.11;96066.72;10165827;28;96891;-65
2021/12/23 20:41:25;;;;;;;7.88;5.25;;;;;;;1.07;75.16;96061.56;10167298;28;99159;-65
2021/12/23 20:46:27;;;;;;;5.20;4.05;;;;;;;1.00;75.41;96068.03;10227446;28;98719;-65
2021/12/23 20:51:37;;;;;;;6.28;3.10;;;;;;;1.01;75.35;96054.22;10289352;28;97043;-66
2021/12/23 20:56:41;;;;;;;8.10;5.45;;;;;;;1.07;75.51;96048.72;10293707;28;98392;-65
2021/12/23 21:01:44;;;;;;;7.68;4.38;;;;;;;1.09;75.71;96046.06;10288304;28;97783;-65
2021/12/23 21:06:47;;;;;;;5.43;4.00;;;;;;;1.08;75.61;96045.19;10286368;28;97748;-65
2021/12/23 21:11:51;;;;;;;7.00;4.13;;;;;;;1.10;75.74;96043.34;10278869;28;97707;-65
2021/12/23 21:16:55;;;;;;;7.53;4.43;;;;;;;1.05;75.71;96044.56;10290006;28;97165;-65
2021/12/23 21:21:58;;;;;;;7.30;4.10;;;;;;;0.99;76.15;96035.50;10287512;28;97438;-65
2021/12/23 21:27:04;;;;;;;11.00;7.10;;;;;;;0.98;76.14;96036.41;10290791;28;96934;-65
2021/12/23 21:32:08;;;;;;;24.90;15.55;;;;;;;0.93;76.14;96038.41;10296862;28;97694;-65
2021/12/23 21:37:11;;;;;;;28.88;16.80;;;;;;;0.91;76.33;96038.50;10290055;28;97961;-65
2021/12/23 21:42:15;;;;;;;26.73;16.83;;;;;;;0.95;76.05;96028.91;10286032;28;99073;-65
2021/12/23 21:47:18;;;;;;;26.75;15.90;;;;;;;0.93;76.04;96015.28;10289238;28;98710;-65
2021/12/23 21:52:23;;;;;;;25.95;15.15;;;;;;;0.87;76.52;96021.63;10292598;28;97213;-65
2021/12/23 21:57:30;;;;;;;15.67;8.63;;;;;;;0.74;76.23;96020.72;10287945;28;97117;-65
2021/12/23 22:02:33;;;;;;;20.25;11.13;;;;;;;0.42;76.56;96021.72;10280457;28;98655;-66
2021/12/23 22:07:36;;;;;;;25.35;15.07;;;;;;;0.38;76.75;96004.84;10285415;28;96920;-66
2021/12/23 22:12:40;;;;;;;19.85;11.73;;;;;;;0.37;76.81;96008.31;10285789;28;98731;-66
2021/12/23 22:17:43;;;;;;;15.20;9.32;;;;;;;0.26;76.79;95997.88;10285860;28;98765;-66
2021/12/23 22:22:46;;;;;;;20.48;12.63;;;;;;;-0.01;77.34;96006.28;10280960;28;98447;-65
2021/12/23 22:27:50;;;;;;;16.17;10.40;;;;;;;-0.16;77.42;95999.47;10291657;28;101065;-66
2021/12/23 22:32:54;;;;;;;14.68;9.30;;;;;;;-0.08;77.74;95999.00;10297542;28;96957;-65
2021/12/23 22:37:57;;;;;;;9.15;6.00;;;;;;;-0.07;77.50;96003.22;10291989;28;97037;-66
2021/12/23 22:43:02;;;;;;;14.40;8.65;;;;;;;-0.08;78.07;95996.44;10292346;28;97086;-66
2021/12/23 22:48:06;;;;;;;10.97;6.90;;;;;;;-0.04;77.60;95993.63;10282659;28;97619;-65
2021/12/23 22:53:09;;;;;;;14.80;8.88;;;;;;;-0.23;78.14;95993.00;10283047;28;99217;-65
2021/12/23 22:58:13;;;;;;;14.57;9.48;;;;;;;-0.40;79.15;95996.53;10287376;28;96887;-66
2021/12/23 23:03:19;;;;;;;16.33;9.38;;;;;;;-0.22;78.92;95986.97;10283889;28;97100;-65
2021/12/23 23:08:22;;;;;;;18.33;10.05;;;;;;;-0.20;78.48;95993.66;10284422;28;97291;-66
2021/12/23 23:13:33;;;;;;;19.05;10.38;;;;;;;-0.17;78.25;95972.94;10282022;28;99575;-65
2021/12/23 23:18:37;;;;;;;19.63;10.63;;;;;;;-0.23;78.14;95964.75;10284359;28;98603;-65
2021/12/23 23:23:57;;;;;;;10.03;6.50;;;;;;;-0.31;78.62;95957.50;10283229;28;98007;-66
2021/12/23 23:39:59;;;;;;;9.77;6.90;;;;;;;-0.14;78.05;95954.78;10283819;28;97461;-66
2021/12/23 23:45:03;;;;;;;11.32;6.57;;;;;;;-0.03;77.83;95958.47;10281936;28;98481;-66
2021/12/23 23:50:07;;;;;;;12.07;8.40;;;;;;;0.03;77.38;95960.69;10289361;28;102620;-66
2021/12/23 23:55:12;;;;;;;10.88;7.10;;;;;;;0.12;77.41;95952.44;10283505;28;96961;-66
